Time;durP1;ratioP1;P1;durP2;ratioP2;P2;SDS_P1;SDS_P2;PMS_P1;PMS_P2;Temp;Humidity;BMP_temperature;BMP_pressure;BME280_temperature;BME280_humidity;BME280_pressure;Samples;Min_cycle;Max_cycle;Signal;HPM_P1;HPM_P2
2022/05/14 00:00:20;;;;;;;4.70;2.83;;;20.20;66.20;;;;;;5073338;28;20254;-69
2022/05/14 00:02:48;;;;;;;7.23;3.27;;;20.10;66.40;;;;;;5113787;28;20239;-69
2022/05/14 00:05:19;;;;;;;4.93;2.73;;;20.10;66.50;;;;;;5089671;28;20232;-69
2022/05/14 00:07:47;;;;;;;8.93;2.47;;;20.10;65.50;;;;;;5082213;28;20205;-69
2022/05/14 00:10:15;;;;;;;4.07;2.87;;;20.10;64.10;;;;;;5072330;28;20207;-69
2022/05/14 00:15:28;;;;;;;9.13;4.00;;;20.00;65.20;;;;;;5105312;28;20310;-69
2022/05/14 00:17:55;;;;;;;11.83;3.40;;;20.00;64.80;;;;;;5098091;28;20650;-69
2022/05/14 00:20:26;;;;;;;11.33;3.70;;;19.90;64.50;;;;;;5073098;28;20256;-69
2022/05/14 00:22:53;;;;;;;9.40;2.90;;;19.90;64.50;;;;;;5097290;28;20767;-69
2022/05/14 00:25:22;;;;;;;5.27;2.67;;;19.90;63.00;;;;;;5089856;28;20215;-69
2022/05/14 00:27:49;;;;;;;10.17;2.53;;;19.90;62.30;;;;;;5096292;28;20208;-69
2022/05/14 00:30:19;;;;;;;10.43;2.90;;;19.90;61.50;;;;;;5073205;28;20266;-69
2022/05/14 00:32:47;;;;;;;3.17;2.47;;;19.80;60.30;;;;;;5098045;28;20579;-69
2022/05/14 00:35:15;;;;;;;7.53;2.97;;;19.80;60.00;;;;;;5088178;28;20208;-69
2022/05/14 00:37:43;;;;;;;7.57;3.03;;;19.80;60.50;;;;;;5080755;28;20294;-69
2022/05/14 00:40:15;;;;;;;4.93;2.70;;;19.80;60.20;;;;;;5069995;28;20570;-69
2022/05/14 00:42:42;;;;;;;7.60;2.50;;;19.80;59.70;;;;;;5063655;28;20210;-69
2022/05/14 00:45:12;;;;;;;7.23;2.77;;;19.70;59.60;;;;;;5083854;28;20204;-69
2022/05/14 00:47:42;;;;;;;7.20;3.10;;;19.60;58.70;;;;;;5089224;28;20207;-69
2022/05/14 00:50:26;;;;;;;3.80;2.37;;;19.60;58.50;;;;;;5076286;28;20250;-69
2022/05/14 00:53:16;;;;;;;6.80;2.40;;;19.50;58.30;;;;;;5091957;28;20209;-69
2022/05/14 00:55:45;;;;;;;9.10;2.70;;;19.60;58.30;;;;;;5076266;28;20227;-69
2022/05/14 00:58:19;;;;;;;7.53;3.10;;;19.50;58.00;;;;;;5062485;28;20213;-69
2022/05/14 01:00:47;;;;;;;8.43;2.67;;;19.60;57.90;;;;;;5067510;28;20292;-69
2022/05/14 01:03:14;;;;;;;3.40;2.47;;;19.50;58.00;;;;;;5060504;28;20558;-69
2022/05/14 01:05:42;;;;;;;8.10;2.70;;;19.50;58.10;;;;;;5083291;28;20212;-69
2022/05/14 01:08:09;;;;;;;6.43;2.67;;;19.50;58.60;;;;;;5083630;28;20211;-69
2022/05/14 01:10:43;;;;;;;10.47;2.80;;;19.50;57.90;;;;;;5083882;28;20196;-69
2022/05/14 01:13:10;;;;;;;5.07;3.00;;;19.60;58.60;;;;;;5060908;28;20254;-69
2022/05/14 01:15:48;;;;;;;8.63;4.13;;;19.60;59.20;;;;;;5077418;28;20295;-69
2022/05/14 01:18:17;;;;;;;8.20;3.80;;;19.60;57.70;;;;;;5074143;28;20309;-69
2022/05/14 01:21:00;;;;;;;9.43;4.07;;;19.50;57.20;;;;;;5099476;28;20267;-69
2022/05/14 01:26:27;;;;;;;11.00;4.57;;;19.50;57.40;;;;;;5074736;28;20325;-69
2022/05/14 01:26:28;;;;;;;7.30;3.20;;;19.50;59.00;;;;;;5065588;28;20221;-69
2022/05/14 01:29:04;;;;;;;7.70;4.20;;;19.50;60.80;;;;;;5067833;28;20212;-69
2022/05/14 01:31:32;;;;;;;8.40;3.40;;;19.50;61.40;;;;;;5067223;28;20611;-69
2022/05/14 01:34:02;;;;;;;13.00;4.10;;;19.40;61.20;;;;;;5081943;28;20651;-69
2022/05/14 01:36:31;;;;;;;7.80;4.13;;;19.40;59.90;;;;;;5083617;28;20678;-69
2022/05/14 01:38:58;;;;;;;5.60;3.53;;;19.30;59.50;;;;;;5093693;28;20236;-69
2022/05/14 01:41:26;;;;;;;8.80;3.90;;;19.30;60.60;;;;;;5075154;28;20596;-69
2022/05/14 01:43:53;;;;;;;10.57;4.50;;;19.30;61.90;;;;;;5075435;28;20212;-69
2022/05/14 01:46:20;;;;;;;6.47;3.77;;;19.20;62.00;;;;;;5092658;28;20218;-69
2022/05/14 01:48:48;;;;;;;8.33;4.10;;;19.20;62.10;;;;;;5071746;28;20228;-69
2022/05/14 01:51:17;;;;;;;9.10;3.77;;;19.20;62.30;;;;;;5076068;28;20598;-69
2022/05/14 01:53:45;;;;;;;7.17;3.40;;;19.10;62.40;;;;;;5065833;28;20234;-69
2022/05/14 01:56:12;;;;;;;11.53;4.13;;;19.10;62.90;;;;;;5071115;28;20199;-69
2022/05/14 01:58:40;;;;;;;8.57;3.57;;;19.10;63.70;;;;;;5096307;28;20257;-69
2022/05/14 02:01:18;;;;;;;4.67;3.30;;;19.00;64.70;;;;;;5065302;28;20221;-69
2022/05/14 02:03:49;;;;;;;6.40;3.63;;;19.00;65.10;;;;;;5071331;28;20691;-69
2022/05/14 02:06:17;;;;;;;9.53;3.60;;;18.90;65.20;;;;;;5070186;28;20199;-69
2022/05/14 02:08:45;;;;;;;8.87;3.80;;;19.00;65.60;;;;;;5071176;28;20210;-69
2022/05/14 02:11:13;;;;;;;9.43;3.73;;;18.90;66.00;;;;;;5067950;28;20214;-69
2022/05/14 02:13:44;;;;;;;8.47;3.63;;;18.90;66.70;;;;;;5067385;28;20645;-69
2022/05/14 02:16:12;;;;;;;8.77;3.37;;;18.90;67.10;;;;;;5099475;28;20608;-69
2022/05/14 02:18:40;;;;;;;10.53;4.20;;;18.90;66.00;;;;;;5072578;28;20239;-69
2022/05/14 02:21:08;;;;;;;10.97;3.73;;;18.90;64.50;;;;;;5061774;28;20297;-69
2022/05/14 02:23:37;;;;;;;4.80;3.37;;;18.80;63.90;;;;;;5086971;28;20237;-69
2022/05/14 02:26:07;;;;;;;9.83;4.07;;;18.80;64.50;;;;;;5071578;28;20198;-69
2022/05/14 02:28:35;;;;;;;7.70;3.37;;;18.80;65.90;;;;;;5071763;28;20207;-69
2022/05/14 02:31:02;;;;;;;10.03;3.57;;;18.80;66.20;;;;;;5086086;28;20212;-69
2022/05/14 02:33:30;;;;;;;10.73;4.13;;;18.70;66.50;;;;;;5063528;28;20219;-69
2022/05/14 02:35:59;;;;;;;8.20;4.07;;;18.70;66.80;;;;;;5082549;28;20615;-69
2022/05/14 02:38:28;;;;;;;7.00;4.00;;;18.70;66.70;;;;;;5087605;28;20644;-69
2022/05/14 02:40:57;;;;;;;7.40;4.17;;;18.70;67.20;;;;;;5093542;28;20228;-69
2022/05/14 02:43:25;;;;;;;11.70;3.77;;;18.70;67.90;;;;;;5057879;28;20226;-69
2022/05/14 02:45:52;;;;;;;7.90;4.07;;;18.60;68.00;;;;;;5090155;28;20483;-69
2022/05/14 02:48:20;;;;;;;7.23;4.23;;;18.60;68.00;;;;;;5079073;28;20202;-69
2022/05/14 02:50:47;;;;;;;9.77;4.07;;;18.60;68.30;;;;;;5073804;28;20237;-69
2022/05/14 02:53:15;;;;;;;7.77;3.80;;;18.60;67.30;;;;;;5068046;28;20219;-69
2022/05/14 02:55:42;;;;;;;7.80;3.97;;;18.60;67.10;;;;;;5066885;28;20552;-69
2022/05/14 02:58:09;;;;;;;5.53;3.77;;;18.60;67.20;;;;;;5086352;28;20225;-69
2022/05/14 03:00:36;;;;;;;7.50;3.93;;;18.60;67.70;;;;;;5074758;28;20222;-69
2022/05/14 03:03:03;;;;;;;9.57;4.00;;;18.60;67.50;;;;;;5074804;28;20234;-69
2022/05/14 03:05:31;;;;;;;11.80;4.07;;;18.60;67.60;;;;;;5087866;28;20221;-69
2022/05/14 03:07:58;;;;;;;12.57;4.20;;;18.60;67.60;;;;;;5065769;28;20205;-69
2022/05/14 03:10:25;;;;;;;6.77;4.23;;;18.60;66.90;;;;;;5088739;28;20512;-69
2022/05/14 03:12:52;;;;;;;9.80;3.27;;;18.60;67.00;;;;;;5097824;28;20206;-69
2022/05/14 03:15:19;;;;;;;8.53;3.67;;;18.60;66.20;;;;;;5058681;28;20215;-69
2022/05/14 03:17:47;;;;;;;5.23;2.83;;;18.60;65.80;;;;;;5072654;28;20703;-69
2022/05/14 03:20:14;;;;;;;8.47;3.43;;;18.60;66.00;;;;;;5069038;28;20229;-69
2022/05/14 03:22:42;;;;;;;8.93;3.80;;;18.60;65.80;;;;;;5082751;28;20235;-69
2022/05/14 03:25:10;;;;;;;7.33;3.33;;;18.50;65.70;;;;;;5087805;28;20221;-69
2022/05/14 03:27:38;;;;;;;6.80;3.20;;;18.50;65.30;;;;;;5074211;28;20217;-69
2022/05/14 03:30:06;;;;;;;5.97;3.27;;;18.50;65.20;;;;;;5082050;28;20226;-68
2022/05/14 03:32:33;;;;;;;7.03;3.30;;;18.50;65.40;;;;;;5068629;28;20290;-68
2022/05/14 03:35:02;;;;;;;7.73;3.40;;;18.40;65.70;;;;;;5079156;28;20226;-68
2022/05/14 03:37:30;;;;;;;5.73;2.70;;;18.40;66.10;;;;;;5078457;28;20223;-68
2022/05/14 03:39:57;;;;;;;5.73;2.93;;;18.40;66.00;;;;;;5104833;28;20651;-68
2022/05/14 03:42:26;;;;;;;9.23;2.90;;;18.30;66.00;;;;;;5073936;28;20574;-68
2022/05/14 03:44:54;;;;;;;9.00;3.23;;;18.30;66.10;;;;;;5087577;28;20553;-68
2022/05/14 03:47:21;;;;;;;7.97;3.20;;;18.30;66.10;;;;;;5076975;28;20297;-68
2022/05/14 03:49:48;;;;;;;8.13;3.30;;;18.30;66.20;;;;;;5087999;28;20268;-68
2022/05/14 03:52:16;;;;;;;7.63;2.87;;;18.20;65.70;;;;;;5089432;28;20222;-68
2022/05/14 03:54:45;;;;;;;9.13;3.83;;;18.20;65.60;;;;;;5062833;28;20347;-68
2022/05/14 03:57:13;;;;;;;6.20;3.87;;;18.20;65.70;;;;;;5080715;28;20272;-68
2022/05/14 03:59:41;;;;;;;6.67;3.20;;;18.10;65.60;;;;;;5056001;28;20249;-68
2022/05/14 04:02:09;;;;;;;8.63;3.83;;;18.10;65.70;;;;;;5095506;28;20214;-69
2022/05/14 04:04:36;;;;;;;8.13;3.23;;;18.10;66.00;;;;;;5088049;28;20206;-69
2022/05/14 04:07:04;;;;;;;11.33;3.60;;;18.10;66.30;;;;;;5093068;28;20250;-69
2022/05/14 04:09:31;;;;;;;10.83;3.50;;;18.10;66.90;;;;;;5090543;28;20275;-69
2022/05/14 04:11:59;;;;;;;10.23;4.30;;;18.10;67.50;;;;;;5110270;28;20216;-69
2022/05/14 04:14:27;;;;;;;7.93;4.10;;;18.10;67.90;;;;;;5086888;28;20237;-69
2022/05/14 04:16:58;;;;;;;8.27;4.40;;;18.10;68.10;;;;;;5063664;28;20217;-69
2022/05/14 04:19:26;;;;;;;11.13;5.20;;;18.10;68.00;;;;;;5086264;28;20264;-69
2022/05/14 04:21:53;;;;;;;10.33;5.57;;;18.10;67.90;;;;;;5078050;28;20210;-69
2022/05/14 04:24:21;;;;;;;8.80;5.20;;;18.10;68.20;;;;;;5050274;28;20207;-68
2022/05/14 04:26:49;;;;;;;15.50;6.03;;;18.10;68.40;;;;;;5108018;28;20215;-68
2022/05/14 04:29:16;;;;;;;7.33;5.57;;;18.10;68.50;;;;;;5106109;28;20737;-68
2022/05/14 04:31:43;;;;;;;8.77;6.40;;;18.20;68.50;;;;;;5113824;28;20653;-68
2022/05/14 04:34:11;;;;;;;11.03;5.63;;;18.20;68.50;;;;;;5074544;28;20284;-68
2022/05/14 04:36:39;;;;;;;8.07;5.93;;;18.30;68.70;;;;;;5079179;28;20228;-68
2022/05/14 04:39:08;;;;;;;10.97;5.50;;;18.30;68.70;;;;;;5070726;28;20233;-68
2022/05/14 04:41:35;;;;;;;12.57;6.77;;;18.40;68.70;;;;;;5107751;28;20227;-68
2022/05/14 04:44:04;;;;;;;13.40;5.87;;;18.50;68.70;;;;;;5084501;28;20208;-68
2022/05/14 04:46:35;;;;;;;17.83;6.33;;;18.60;68.80;;;;;;5061525;28;20657;-69
2022/05/14 04:49:04;;;;;;;11.73;5.97;;;18.60;68.90;;;;;;5086268;28;20232;-69
2022/05/14 04:51:32;;;;;;;12.03;6.00;;;18.70;68.70;;;;;;5073446;28;20307;-69
2022/05/14 04:53:59;;;;;;;9.27;5.40;;;18.80;68.20;;;;;;5065257;28;20242;-69
2022/05/14 04:56:27;;;;;;;13.13;5.47;;;18.90;67.60;;;;;;5075264;28;20211;-69
2022/05/14 04:58:55;;;;;;;8.97;5.27;;;18.90;67.00;;;;;;5060585;28;20571;-69
2022/05/14 05:01:23;;;;;;;8.30;4.80;;;19.00;66.30;;;;;;5074316;28;20260;-69
2022/05/14 05:03:51;;;;;;;11.33;6.03;;;19.10;65.40;;;;;;5090246;28;20278;-69
2022/05/14 05:06:18;;;;;;;12.87;5.33;;;19.20;64.90;;;;;;5073964;28;20220;-68
2022/05/14 05:08:45;;;;;;;8.53;4.97;;;19.20;64.40;;;;;;5075427;28;20212;-68
2022/05/14 05:11:12;;;;;;;9.47;5.43;;;19.30;64.10;;;;;;5069361;28;20216;-68
2022/05/14 05:13:40;;;;;;;7.20;4.90;;;19.30;64.30;;;;;;5096625;28;20290;-68
2022/05/14 05:16:07;;;;;;;12.87;5.17;;;19.40;64.20;;;;;;5082040;28;20299;-69
2022/05/14 05:18:35;;;;;;;12.40;4.90;;;19.40;64.10;;;;;;5096777;28;20286;-69
2022/05/14 05:21:03;;;;;;;10.03;4.97;;;19.40;63.70;;;;;;5097744;28;20246;-69
2022/05/14 05:23:30;;;;;;;9.97;4.80;;;19.60;63.50;;;;;;5062403;28;20370;-69
2022/05/14 05:25:57;;;;;;;8.20;4.80;;;19.60;63.10;;;;;;5082575;28;20207;-69
2022/05/14 05:28:27;;;;;;;6.23;4.83;;;19.70;62.80;;;;;;5079493;28;20223;-69
2022/05/14 05:30:55;;;;;;;6.70;4.83;;;19.80;62.70;;;;;;5087899;28;20288;-69
2022/05/14 05:33:24;;;;;;;9.53;4.23;;;20.00;62.50;;;;;;5061528;28;20241;-69
2022/05/14 05:35:52;;;;;;;8.37;4.90;;;20.10;62.20;;;;;;5084788;28;20211;-69
2022/05/14 05:38:19;;;;;;;13.53;4.90;;;20.20;62.10;;;;;;5101857;28;20227;-69
2022/05/14 05:40:46;;;;;;;9.47;4.87;;;20.30;61.60;;;;;;5084625;28;20216;-69
2022/05/14 05:43:13;;;;;;;10.43;4.70;;;20.40;61.70;;;;;;5077963;28;20208;-69
2022/05/14 05:45:44;;;;;;;8.23;4.70;;;20.50;61.90;;;;;;5086049;28;20550;-69
2022/05/14 05:48:11;;;;;;;11.43;5.17;;;20.50;61.70;;;;;;5077231;28;20287;-69
2022/05/14 05:50:38;;;;;;;9.00;4.33;;;20.60;61.90;;;;;;5087527;28;20211;-69
2022/05/14 05:53:06;;;;;;;9.50;5.27;;;20.70;62.00;;;;;;5090666;28;20209;-69
2022/05/14 05:58:19;;;;;;;8.50;4.57;;;21.00;62.20;;;;;;5092327;28;20208;-69
2022/05/14 06:00:47;;;;;;;14.07;4.70;;;21.20;61.70;;;;;;5086602;28;20236;-69
2022/05/14 06:03:15;;;;;;;16.93;5.17;;;21.40;61.60;;;;;;5074825;28;20211;-69
2022/05/14 06:05:42;;;;;;;8.87;4.27;;;21.60;61.40;;;;;;5074790;28;20579;-69
2022/05/14 06:08:19;;;;;;;9.70;4.83;;;21.70;61.00;;;;;;5081630;28;20216;-69
2022/05/14 06:10:46;;;;;;;6.67;5.00;;;21.90;60.40;;;;;;5068571;28;20217;-69
2022/05/14 06:13:14;;;;;;;8.57;4.80;;;21.90;60.30;;;;;;5073460;28;20211;-69
2022/05/14 06:15:42;;;;;;;10.13;5.23;;;22.10;60.50;;;;;;5074557;28;20582;-69
2022/05/14 06:18:09;;;;;;;10.40;4.83;;;22.10;60.50;;;;;;5061514;28;20241;-69
2022/05/14 06:20:38;;;;;;;13.57;5.60;;;22.20;60.10;;;;;;5083405;28;20243;-69
2022/05/14 06:23:06;;;;;;;12.07;6.47;;;22.30;59.70;;;;;;5077145;28;20225;-69
2022/05/14 06:25:34;;;;;;;9.90;5.30;;;22.30;58.20;;;;;;5081286;28;20279;-69
2022/05/14 06:28:01;;;;;;;12.00;6.20;;;22.20;58.50;;;;;;5090879;28;20197;-69
2022/05/14 06:30:30;;;;;;;10.57;6.23;;;22.30;59.20;;;;;;5104088;28;20217;-69
2022/05/14 06:33:05;;;;;;;7.40;5.37;;;22.40;59.80;;;;;;5077629;28;20225;-69
2022/05/14 06:35:33;;;;;;;12.13;6.57;;;22.40;59.70;;;;;;5087756;28;20205;-69
2022/05/14 06:38:01;;;;;;;8.03;5.67;;;22.50;59.30;;;;;;5077298;28;20212;-69
2022/05/14 06:40:29;;;;;;;10.60;6.23;;;22.50;59.80;;;;;;5095342;28;20673;-69
2022/05/14 06:42:57;;;;;;;12.10;6.90;;;22.70;60.00;;;;;;5089826;28;20210;-69
2022/05/14 06:45:24;;;;;;;12.80;6.83;;;22.80;59.30;;;;;;5073888;28;20225;-69
2022/05/14 06:47:52;;;;;;;11.47;6.43;;;22.90;58.80;;;;;;5093711;28;20203;-69
2022/05/14 06:50:20;;;;;;;10.00;6.23;;;23.00;57.70;;;;;;5074788;28;20202;-69
2022/05/14 06:52:50;;;;;;;14.23;6.93;;;23.10;58.60;;;;;;5088122;28;20737;-69
2022/05/14 06:55:21;;;;;;;10.83;6.77;;;23.30;58.90;;;;;;5100077;28;20598;-69
2022/05/14 06:57:50;;;;;;;123.77;43.07;;;23.40;59.40;;;;;;5083142;28;20198;-68
2022/05/14 07:00:18;;;;;;;13.30;7.80;;;23.60;58.90;;;;;;5083658;28;20544;-68
2022/05/14 07:02:46;;;;;;;11.30;6.27;;;23.70;58.10;;;;;;5080429;28;20201;-68
2022/05/14 07:08:00;;;;;;;13.63;7.87;;;23.80;56.80;;;;;;5079390;28;20279;-68
2022/05/14 07:10:27;;;;;;;14.37;7.83;;;23.80;56.90;;;;;;5077178;28;20201;-68
2022/05/14 07:12:55;;;;;;;12.37;7.47;;;23.80;57.40;;;;;;5087062;28;20209;-68
2022/05/14 07:15:22;;;;;;;13.90;8.50;;;23.80;57.50;;;;;;5085689;28;20213;-69
2022/05/14 07:17:49;;;;;;;23.43;9.60;;;23.90;58.00;;;;;;5068699;28;20208;-69
2022/05/14 07:20:16;;;;;;;12.30;8.50;;;24.10;57.60;;;;;;5096085;28;20214;-68
2022/05/14 07:22:46;;;;;;;11.80;9.07;;;24.20;57.60;;;;;;5079530;28;20316;-68
2022/05/14 07:25:14;;;;;;;14.13;9.03;;;24.30;57.40;;;;;;5076438;28;20651;-68
2022/05/14 07:27:42;;;;;;;14.27;9.73;;;24.40;56.50;;;;;;5100595;28;20224;-68
2022/05/14 07:30:10;;;;;;;11.73;9.03;;;24.40;56.20;;;;;;5089985;28;20599;-68
2022/05/14 07:32:37;;;;;;;13.30;9.10;;;24.30;57.10;;;;;;5084393;28;20206;-68
2022/05/14 07:35:05;;;;;;;17.73;9.70;;;24.30;57.60;;;;;;5081607;28;20197;-68
2022/05/14 07:37:35;;;;;;;14.07;10.20;;;24.30;57.80;;;;;;5081234;28;20205;-68
2022/05/14 07:40:06;;;;;;;13.53;9.03;;;24.30;58.00;;;;;;5085062;28;20202;-68
2022/05/14 07:42:41;;;;;;;13.03;8.90;;;24.40;58.80;;;;;;5083206;28;20225;-68
2022/05/14 07:45:12;;;;;;;14.17;10.33;;;24.50;58.50;;;;;;5072359;28;20202;-68
2022/05/14 07:47:40;;;;;;;16.77;10.67;;;24.60;58.20;;;;;;5081611;28;20308;-68
2022/05/14 07:50:08;;;;;;;18.47;10.87;;;24.70;57.80;;;;;;5078902;28;20556;-68
2022/05/14 07:52:37;;;;;;;11.20;10.10;;;24.80;58.60;;;;;;5086912;28;20216;-68
2022/05/14 07:55:05;;;;;;;13.97;11.37;;;24.90;59.40;;;;;;5081717;28;20240;-68
2022/05/14 07:57:32;;;;;;;14.60;11.77;;;25.20;58.90;;;;;;5079321;28;20201;-68
2022/05/14 07:59:59;;;;;;;13.57;11.47;;;25.30;57.40;;;;;;5088977;28;20696;-68
2022/05/14 08:02:34;;;;;;;15.23;11.50;;;25.40;57.30;;;;;;5090170;28;20221;-68
2022/05/14 08:05:08;;;;;;;17.20;11.23;;;25.40;57.70;;;;;;5086559;28;20204;-68
2022/05/14 08:07:36;;;;;;;16.53;11.10;;;25.50;57.60;;;;;;5093686;28;20296;-68
2022/05/14 08:10:06;;;;;;;20.60;11.67;;;25.60;58.20;;;;;;5079419;28;20203;-68
2022/05/14 08:12:38;;;;;;;16.00;11.73;;;25.80;58.50;;;;;;5097639;28;20210;-68
2022/05/14 08:15:07;;;;;;;15.03;10.27;;;26.00;57.70;;;;;;5110764;28;20348;-69
2022/05/14 08:17:34;;;;;;;19.00;11.67;;;26.10;56.90;;;;;;5088333;28;20208;-69
2022/05/14 08:20:02;;;;;;;20.50;11.83;;;26.30;57.10;;;;;;5110436;28;20221;-69
2022/05/14 08:25:14;;;;;;;17.40;11.60;;;26.30;56.10;;;;;;5081870;28;20208;-69
2022/05/14 08:27:45;;;;;;;12.30;10.60;;;26.30;56.60;;;;;;5084939;28;20201;-69
2022/05/14 08:30:16;;;;;;;13.13;10.63;;;26.40;57.30;;;;;;5109320;28;20228;-68
2022/05/14 08:32:43;;;;;;;13.93;11.20;;;26.60;57.10;;;;;;5088712;28;20643;-68
2022/05/14 08:35:11;;;;;;;24.10;13.47;;;26.80;56.20;;;;;;5089981;28;20212;-68
2022/05/14 08:37:40;;;;;;;15.00;11.93;;;27.00;56.20;;;;;;5081987;28;20311;-68
2022/05/14 08:40:20;;;;;;;16.13;11.33;;;27.10;55.70;;;;;;5071870;28;20208;-68
2022/05/14 08:42:57;;;;;;;15.17;11.13;;;27.30;55.90;;;;;;5083648;28;20322;-68
2022/05/14 08:45:26;;;;;;;14.20;12.23;;;27.50;55.20;;;;;;5089299;28;20237;-68
2022/05/14 08:48:04;;;;;;;22.80;12.37;;;27.70;54.10;;;;;;5087052;28;20205;-68
2022/05/14 08:50:36;;;;;;;12.20;10.93;;;27.80;54.10;;;;;;5093258;28;20205;-69
2022/05/14 08:53:13;;;;;;;15.57;12.60;;;27.80;54.70;;;;;;5088171;28;20656;-69
2022/05/14 08:55:59;;;;;;;15.83;13.00;;;28.00;53.30;;;;;;5109205;28;20216;-69
2022/05/14 08:59:08;;;;;;;17.63;12.27;;;27.90;53.40;;;;;;5070551;28;20227;-69
2022/05/14 09:01:39;;;;;;;14.13;11.83;;;27.90;53.30;;;;;;5055617;28;20731;-69
2022/05/14 09:04:09;;;;;;;21.67;11.73;;;27.90;53.70;;;;;;5102962;28;20680;-69
2022/05/14 09:06:37;;;;;;;16.20;12.40;;;28.00;53.80;;;;;;5070657;28;20283;-69
2022/05/14 09:09:06;;;;;;;15.73;11.40;;;28.20;53.50;;;;;;5068327;28;20198;-69
2022/05/14 09:11:38;;;;;;;16.47;11.57;;;28.30;53.20;;;;;;5075822;28;20664;-69
2022/05/14 09:14:20;;;;;;;20.90;12.10;;;28.50;53.10;;;;;;5067803;28;20228;-69
2022/05/14 09:17:10;;;;;;;16.43;11.83;;;28.60;52.90;;;;;;5086987;28;20632;-69
2022/05/14 09:19:40;;;;;;;13.10;11.77;;;28.60;52.40;;;;;;5087858;28;20214;-69
2022/05/14 09:22:22;;;;;;;19.37;12.53;;;28.70;52.30;;;;;;5104904;28;20243;-69
2022/05/14 09:24:51;;;;;;;19.47;12.47;;;28.60;51.80;;;;;;5085669;28;20203;-69
2022/05/14 09:27:34;;;;;;;17.17;11.83;;;28.60;52.70;;;;;;5094626;28;20229;-69
2022/05/14 09:30:06;;;;;;;14.60;11.70;;;28.60;52.40;;;;;;5083066;28;20280;-69
2022/05/14 09:32:42;;;;;;;17.40;12.80;;;28.60;53.00;;;;;;5108030;28;20227;-69
2022/05/14 09:35:22;;;;;;;15.80;11.67;;;28.60;52.10;;;;;;5088177;28;20574;-69
2022/05/14 09:37:51;;;;;;;16.70;12.47;;;28.40;51.60;;;;;;5091634;28;20233;-69
2022/05/14 09:40:24;;;;;;;17.17;11.87;;;28.30;52.30;;;;;;5097439;28;20224;-69
2022/05/14 09:43:09;;;;;;;14.23;12.43;;;28.20;52.90;;;;;;5083997;28;20218;-69
2022/05/14 09:45:39;;;;;;;21.33;12.63;;;28.10;53.20;;;;;;5088249;28;20207;-69
2022/05/14 09:48:21;;;;;;;19.03;12.10;;;28.00;53.40;;;;;;5059857;28;20194;-69
2022/05/14 09:50:57;;;;;;;18.80;13.77;;;27.80;53.40;;;;;;5079739;28;20649;-69
2022/05/14 09:53:39;;;;;;;17.57;12.43;;;27.70;53.70;;;;;;5083334;28;20647;-69
2022/05/14 09:56:13;;;;;;;16.47;12.03;;;27.70;54.00;;;;;;5090599;28;20212;-69
2022/05/14 09:59:07;;;;;;;19.20;11.93;;;27.70;53.10;;;;;;5097026;28;20208;-69
2022/05/14 10:01:45;;;;;;;17.17;10.53;;;27.80;53.90;;;;;;5084352;28;20317;-69
2022/05/14 10:04:34;;;;;;;17.37;12.50;;;28.00;54.40;;;;;;5081088;28;20284;-69
2022/05/14 10:07:22;;;;;;;12.03;10.80;;;28.30;53.70;;;;;;5067986;28;20218;-69
2022/05/14 10:09:52;;;;;;;20.00;12.50;;;28.40;52.90;;;;;;5084806;28;20311;-69
2022/05/14 10:12:52;;;;;;;18.27;12.17;;;28.50;52.10;;;;;;5094904;28;20211;-69
2022/05/14 10:15:46;;;;;;;18.73;11.47;;;28.60;53.30;;;;;;5051711;28;20249;-69
2022/05/14 10:18:13;;;;;;;22.17;13.17;;;28.80;52.80;;;;;;5076915;28;20296;-69
2022/05/14 10:20:47;;;;;;;21.87;13.70;;;28.90;51.70;;;;;;5086537;28;20197;-69
2022/05/14 10:26:52;;;;;;;12.77;9.73;;;28.80;52.10;;;;;;5062840;28;20663;-69
2022/05/14 10:29:36;;;;;;;13.90;10.50;;;29.00;52.50;;;;;;5087344;28;20290;-69
2022/05/14 10:32:14;;;;;;;46.43;18.53;;;29.30;52.70;;;;;;5099016;28;20205;-69
2022/05/14 10:35:02;;;;;;;15.43;11.07;;;29.60;51.20;;;;;;5088781;28;20197;-69
2022/05/14 10:37:42;;;;;;;11.30;10.10;;;29.80;49.60;;;;;;5084977;28;20207;-69
2022/05/14 10:40:37;;;;;;;15.63;10.60;;;29.90;49.60;;;;;;5084242;28;20205;-69
2022/05/14 10:43:16;;;;;;;16.13;10.27;;;30.00;49.20;;;;;;5073793;28;20296;-69
2022/05/14 10:45:49;;;;;;;20.20;11.40;;;30.20;50.00;;;;;;5082653;28;20208;-69
2022/05/14 10:48:59;;;;;;;17.43;11.47;;;30.20;49.30;;;;;;5099878;28;20209;-69
2022/05/14 10:51:32;;;;;;;15.20;10.97;;;30.20;48.80;;;;;;5079762;28;20212;-69
2022/05/14 10:54:01;;;;;;;15.60;9.03;;;30.20;48.60;;;;;;5097683;28;20205;-69
2022/05/14 10:56:37;;;;;;;14.97;10.20;;;30.20;49.70;;;;;;5065302;28;20274;-69
2022/05/14 10:59:26;;;;;;;19.93;10.53;;;30.30;49.80;;;;;;5071708;28;20672;-69
2022/05/14 11:01:53;;;;;;;15.27;10.07;;;30.50;48.70;;;;;;5095023;28;20768;-69
2022/05/14 11:04:42;;;;;;;14.43;9.77;;;30.60;49.30;;;;;;5077450;28;20205;-69
2022/05/14 11:07:31;;;;;;;15.73;9.73;;;30.60;48.10;;;;;;5087903;28;20280;-69
2022/05/14 11:10:17;;;;;;;15.40;10.27;;;30.40;47.80;;;;;;5074571;28;20227;-69
2022/05/14 11:12:47;;;;;;;13.83;10.23;;;30.30;49.00;;;;;;5076487;28;20201;-69
2022/05/14 11:15:29;;;;;;;11.47;9.10;;;30.30;48.30;;;;;;5096220;28;20213;-69
2022/05/14 11:18:12;;;;;;;13.80;8.10;;;30.30;48.70;;;;;;5059254;28;20205;-69
2022/05/14 11:20:56;;;;;;;18.43;9.17;;;30.30;49.00;;;;;;5083075;28;20708;-69
2022/05/14 11:23:30;;;;;;;14.43;9.57;;;30.50;49.50;;;;;;5085170;28;20312;-69
2022/05/14 11:26:08;;;;;;;19.33;10.00;;;30.60;49.80;;;;;;5059095;28;20225;-69
2022/05/14 11:28:36;;;;;;;10.77;7.97;;;30.80;49.60;;;;;;5090940;28;20197;-69
2022/05/14 11:31:24;;;;;;;12.07;7.63;;;30.90;49.20;;;;;;5062144;28;20206;-69
2022/05/14 11:33:54;;;;;;;13.33;8.40;;;31.10;48.60;;;;;;5061732;28;20202;-69
2022/05/14 11:36:27;;;;;;;11.73;8.13;;;31.20;48.20;;;;;;5065741;28;20259;-69
2022/05/14 11:39:09;;;;;;;15.13;9.37;;;31.30;47.90;;;;;;5064248;28;20201;-69
2022/05/14 11:41:37;;;;;;;13.10;8.80;;;31.30;47.00;;;;;;5062427;28;20218;-69
2022/05/14 11:44:06;;;;;;;12.30;7.43;;;31.30;47.10;;;;;;5053741;28;20232;-69
2022/05/14 11:46:40;;;;;;;10.47;7.30;;;31.20;48.40;;;;;;5053221;28;20198;-69
2022/05/14 11:49:34;;;;;;;9.93;7.67;;;31.20;48.10;;;;;;5062614;28;20300;-69
2022/05/14 11:52:12;;;;;;;11.73;7.60;;;31.30;47.10;;;;;;5064892;28;20194;-69
2022/05/14 11:55:08;;;;;;;9.03;7.27;;;31.40;46.70;;;;;;5070411;28;20529;-69
2022/05/14 11:57:42;;;;;;;9.67;6.73;;;31.50;47.80;;;;;;5063289;28;20369;-69
2022/05/14 12:00:33;;;;;;;8.80;7.00;;;31.50;47.50;;;;;;5057787;28;20229;-69
2022/05/14 12:03:33;;;;;;;11.80;6.40;;;31.60;48.20;;;;;;5058288;28;20237;-69
2022/05/14 12:06:13;;;;;;;10.63;6.17;;;31.70;48.40;;;;;;5060284;28;20214;-69
2022/05/14 12:08:55;;;;;;;11.30;6.17;;;31.80;48.90;;;;;;5056196;28;20206;-69
2022/05/14 12:11:22;;;;;;;6.77;5.13;;;31.90;49.60;;;;;;5085590;28;20220;-70
2022/05/14 12:13:54;;;;;;;8.20;4.10;;;32.00;49.60;;;;;;5099167;28;20229;-70
2022/05/14 12:16:51;;;;;;;7.53;4.90;;;32.10;45.80;;;;;;5095457;28;20241;-70
2022/05/14 12:19:19;;;;;;;9.63;3.97;;;32.10;44.00;;;;;;5055154;28;20212;-70
2022/05/14 12:21:58;;;;;;;7.63;3.47;;;32.10;43.90;;;;;;5063672;28;20218;-70
2022/05/14 12:24:32;;;;;;;12.60;4.30;;;32.00;44.90;;;;;;5089245;28;20229;-69
2022/05/14 12:27:00;;;;;;;9.63;4.10;;;32.10;44.60;;;;;;5072652;28;20190;-70
2022/05/14 12:29:30;;;;;;;10.73;4.30;;;32.10;44.90;;;;;;5068929;28;20209;-70
2022/05/14 12:34:49;;;;;;;7.00;4.53;;;32.10;45.00;;;;;;5072984;28;20511;-70
2022/05/14 12:37:22;;;;;;;4.60;3.77;;;32.10;43.90;;;;;;5085940;28;20570;-70
2022/05/14 12:39:52;;;;;;;9.20;4.53;;;32.10;43.60;;;;;;5079045;28;20210;-70
2022/05/14 12:42:39;;;;;;;7.37;4.17;;;32.10;44.80;;;;;;5070712;28;20221;-70
2022/05/14 12:45:08;;;;;;;20.93;5.60;;;32.20;45.50;;;;;;5077830;28;20247;-70
2022/05/14 12:47:39;;;;;;;7.40;4.07;;;32.20;45.30;;;;;;5100695;28;20209;-70
2022/05/14 12:50:22;;;;;;;10.97;3.80;;;32.20;45.20;;;;;;5072912;28;20300;-71
2022/05/14 12:52:58;;;;;;;9.83;3.73;;;32.30;45.70;;;;;;5100423;28;20282;-70
2022/05/14 12:55:27;;;;;;;8.43;3.80;;;32.30;44.40;;;;;;5092131;28;20205;-70
2022/05/14 12:57:56;;;;;;;6.00;3.13;;;32.30;44.10;;;;;;5080199;28;20213;-70
2022/05/14 13:00:24;;;;;;;6.00;4.00;;;32.20;44.40;;;;;;5080565;28;20228;-70
2022/05/14 13:02:56;;;;;;;5.70;3.90;;;32.20;44.10;;;;;;5084699;28;20213;-70
2022/05/14 13:05:38;;;;;;;10.90;4.23;;;32.20;43.60;;;;;;5071069;28;20216;-70
2022/05/14 13:08:21;;;;;;;5.60;4.23;;;32.20;43.80;;;;;;5075484;28;20235;-70
2022/05/14 13:10:58;;;;;;;7.33;3.97;;;32.20;44.00;;;;;;5089668;28;20208;-70
2022/05/14 13:13:35;;;;;;;6.03;4.30;;;32.20;43.50;;;;;;5101869;28;20692;-70
2022/05/14 13:16:17;;;;;;;7.67;4.60;;;32.20;44.00;;;;;;5077631;28;20228;-70
2022/05/14 13:18:50;;;;;;;5.70;3.77;;;32.20;43.80;;;;;;5085631;28;20220;-70